Data for 09/28/2018

Time Sea-Level Adjusted Pressure Absolute Pressure Temperature Relative Humidity Dew Point   
(mb) (inHg) (mb) (inHg) (C) (F) (%) (C) (F)
00:05 1023 30.21 852 25.16 2.8 37.1 74 -1.3 29.6
00:10 1023 30.21 852 25.16 2.8 37 74 -1.4 29.5
00:15 1023 30.21 852 25.16 2.8 37.1 73 -1.5 29.4
00:20 1023 30.21 852 25.16 2.9 37.2 73 -1.5 29.3
00:25 1023 30.21 852 25.16 2.9 37.2 72 -1.6 29.1
00:30 1023 30.21 852 25.16 3 37.3 72 -1.7 29
00:35 1023 30.21 852 25.16 3.1 37.5 71 -1.7 28.9
00:40 1023 30.21 852 25.16 3.1 37.6 71 -1.6 29.1
00:45 1023 30.21 852 25.16 3.1 37.6 71 -1.7 29
00:50 1023 30.21 853 25.19 3.1 37.7 71 -1.6 29.1
00:55 1024 30.24 853 25.19 3.1 37.6 71 -1.6 29.1
01:00 1024 30.24 853 25.19 3.1 37.7 71 -1.7 29
01:05 1024 30.24 853 25.19 3.1 37.6 71 -1.6 29.1
01:10 1024 30.24 853 25.19 3.1 37.6 71 -1.6 29.1
01:15 1024 30.24 853 25.19 3.1 37.6 71 -1.7 29
01:20 1024 30.24 853 25.19 3.1 37.7 71 -1.6 29.1
01:25 1024 30.24 853 25.19 3.1 37.6 71 -1.6 29
01:30 1024 30.24 853 25.19 3.2 37.7 71 -1.6 29.1
01:35 1024 30.24 853 25.19 3.2 37.7 71 -1.6 29.1
01:40 1024 30.24 853 25.19 3.2 37.7 71 -1.7 29
01:45 1024 30.24 853 25.19 3.1 37.6 71 -1.6 29.2
01:50 1024 30.24 853 25.19 3 37.5 72 -1.6 29.1
01:55 1024 30.24 853 25.19 3 37.4 72 -1.6 29.2
02:00 1024 30.24 853 25.19 3 37.4 72 -1.5 29.3
02:05 1024 30.24 853 25.19 2.9 37.3 73 -1.5 29.3
02:10 1024 30.24 853 25.19 2.9 37.1 73 -1.4 29.4
02:15 1024 30.24 853 25.19 2.8 37 74 -1.3 29.6
02:20 1024 30.24 853 25.19 2.7 36.8 76 -1.2 29.8
02:25 1024 30.24 853 25.19 2.5 36.6 77 -1.2 29.9
02:30 1024 30.24 854 25.22 2.4 36.4 77 -1.2 29.9
02:35 1024 30.24 854 25.22 2.4 36.2 78 -1.2 29.9
02:40 1024 30.24 854 25.22 2.3 36.2 78 -1.1 30
02:45 1024 30.24 854 25.22 2.2 36 78 -1.2 29.9
02:50 1024 30.24 853 25.19 2.2 36 79 -1.1 30
02:55 1024 30.24 854 25.22 2.2 36 78 -1.2 29.9
03:00 1024 30.24 854 25.22 2.2 36 78 -1.1 29.9
03:05 1024 30.24 853 25.19 2.2 36 78 -1.2 29.8
03:10 1024 30.24 853 25.19 2.2 36 78 -1.2 29.8
03:15 1024 30.24 854 25.22 2.3 36.1 77 -1.3 29.6
03:20 1024 30.24 854 25.22 2.3 36.1 77 -1.3 29.6
03:25 1024 30.24 853 25.19 2.3 36.2 77 -1.4 29.5
03:30 1024 30.24 853 25.19 2.3 36.2 76 -1.4 29.5
03:35 1024 30.24 853 25.19 2.3 36.2 76 -1.4 29.4
03:40 1024 30.24 853 25.19 2.3 36.2 76 -1.4 29.5
03:45 1024 30.24 853 25.19 2.3 36.2 76 -1.4 29.4
03:50 1024 30.24 853 25.19 2.3 36.1 77 -1.4 29.5
03:55 1024 30.24 853 25.19 2.3 36.1 77 -1.4 29.4
04:00 1024 30.24 853 25.19 2.3 36.1 76 -1.4 29.4
04:05 1024 30.24 853 25.19 2.3 36.1 77 -1.4 29.4
04:10 1024 30.24 853 25.19 2.2 36 77 -1.4 29.5
04:15 1024 30.24 853 25.19 2.2 35.9 77 -1.4 29.5
04:20 1024 30.24 853 25.19 2.1 35.8 77 -1.4 29.4
04:25 1024 30.24 853 25.19 2.1 35.8 78 -1.3 29.6
04:30 1024 30.24 853 25.19 2.1 35.7 78 -1.4 29.5
04:35 1024 30.24 853 25.19 2.1 35.7 78 -1.4 29.6
04:40 1024 30.24 853 25.19 2 35.6 78 -1.4 29.5
04:45 1024 30.24 853 25.19 2 35.6 79 -1.3 29.6
04:50 1024 30.24 853 25.19 2 35.5 79 -1.3 29.6
04:55 1024 30.24 853 25.19 1.9 35.4 79 -1.4 29.5
05:00 1024 30.24 853 25.19 1.9 35.4 79 -1.4 29.5
05:05 1024 30.24 853 25.19 1.9 35.4 79 -1.4 29.5
05:10 1024 30.24 853 25.19 1.9 35.4 79 -1.4 29.6
05:15 1024 30.24 853 25.19 1.8 35.3 80 -1.3 29.7
05:20 1024 30.24 853 25.19 1.8 35.2 80 -1.3 29.6
05:25 1024 30.24 853 25.19 1.7 35.1 81 -1.2 29.8
05:30 1024 30.24 853 25.19 1.7 35 81 -1.2 29.8
05:35 1024 30.24 853 25.19 1.7 35 81 -1.3 29.6
05:40 1024 30.24 853 25.19 1.7 35 81 -1.3 29.7
05:45 1024 30.24 853 25.19 1.7 35.1 80 -1.4 29.5
05:50 1024 30.24 853 25.19 1.7 35.1 80 -1.3 29.6
05:55 1024 30.24 853 25.19 1.8 35.2 80 -1.4 29.5
06:00 1024 30.24 853 25.19 1.8 35.2 79 -1.5 29.4
06:05 1024 30.24 853 25.19 1.8 35.3 79 -1.5 29.4
06:10 1024 30.24 853 25.19 1.8 35.3 79 -1.5 29.3
06:15 1024 30.24 853 25.19 1.7 35.1 80 -1.3 29.7
06:20 1024 30.24 853 25.19 1.6 34.9 81 -1.3 29.6
06:25 1024 30.24 853 25.19 1.6 34.9 81 -1.3 29.6
06:30 1024 30.24 853 25.19 1.6 34.9 81 -1.3 29.7
06:35 1024 30.24 853 25.19 1.5 34.8 81 -1.3 29.6
06:40 1024 30.24 853 25.19 1.5 34.7 82 -1.3 29.6
06:45 1024 30.24 853 25.19 1.5 34.6 82 -1.3 29.7
06:50 1024 30.24 853 25.19 1.5 34.6 82 -1.3 29.7
06:55 1024 30.24 853 25.19 1.4 34.6 82 -1.3 29.7
07:00 1024 30.24 853 25.19 1.4 34.5 83 -1.3 29.7
07:05 1024 30.24 853 25.19 1.3 34.4 83 -1.3 29.7
07:10 1024 30.24 853 25.19 1.4 34.4 83 -1.3 29.7
07:15 1024 30.24 853 25.19 1.3 34.4 83 -1.3 29.7
07:20 1024 30.24 853 25.19 1.4 34.4 83 -1.3 29.7
07:25 1024 30.24 853 25.19 1.4 34.4 82 -1.3 29.6
07:30 1024 30.24 853 25.19 1.4 34.5 82 -1.4 29.6
07:35 1024 30.24 853 25.19 1.4 34.6 82 -1.4 29.5
07:40 1024 30.24 853 25.19 1.4 34.6 82 -1.4 29.6
07:45 1024 30.24 853 25.19 1.4 34.5 82 -1.3 29.6
07:50 1024 30.24 853 25.19 1.3 34.4 83 -1.3 29.7
07:55 1024 30.24 853 25.19 1.3 34.4 83 -1.3 29.7
08:00 1024 30.24 853 25.19 1.3 34.3 84 -1.2 29.8
08:05 1024 30.24 853 25.19 1.3 34.3 83 -1.2 29.8
08:10 1024 30.24 853 25.19 1.3 34.4 83 -1.2 29.8
08:15 1023 30.21 853 25.19 1.3 34.3 84 -1.2 29.8
08:20 1023 30.21 853 25.19 1.2 34.1 84 -1.3 29.7
08:25 1023 30.21 853 25.19 1.2 34.1 84 -1.3 29.7
08:30 1023 30.21 853 25.19 1.2 34.1 83 -1.3 29.6
08:35 1023 30.21 853 25.19 1.2 34.2 83 -1.4 29.5
08:40 1023 30.21 852 25.16 1.2 34.2 83 -1.4 29.5
08:45 1023 30.21 853 25.19 1.2 34.2 82 -1.5 29.3
08:50 1023 30.21 853 25.19 1.3 34.3 82 -1.4 29.4
08:55 1023 30.21 852 25.16 1.3 34.3 82 -1.5 29.3
09:00 1023 30.21 853 25.19 1.4 34.5 81 -1.5 29.3
09:05 1023 30.21 852 25.16 1.6 34.8 80 -1.6 29.2
09:10 1023 30.21 852 25.16 1.8 35.3 79 -1.5 29.3
09:15 1023 30.21 852 25.16 1.9 35.4 78 -1.6 29.1
09:20 1023 30.21 853 25.19 2 35.6 78 -1.5 29.3
09:25 1023 30.21 853 25.19 2 35.7 78 -1.4 29.4
09:30 1023 30.21 852 25.16 2 35.6 77 -1.6 29.1
09:35 1023 30.21 852 25.16 2 35.7 77 -1.6 29
09:40 1023 30.21 852 25.16 2.1 35.7 76 -1.7 28.9
09:45 1023 30.21 852 25.16 2.1 35.7 77 -1.6 29.1
09:50 1023 30.21 852 25.16 2.1 35.9 76 -1.7 28.9
09:55 1023 30.21 852 25.16 2.2 36 75 -1.8 28.8
10:00 1023 30.21 852 25.16 2.3 36.2 74 -1.8 28.8
10:05 1023 30.21 852 25.16 2.5 36.4 74 -1.8 28.8
10:10 1023 30.21 852 25.16 2.7 36.8 73 -1.6 29.1
10:15 1023 30.21 852 25.16 2.6 36.7 73 -1.7 28.9
10:20 1023 30.21 852 25.16 2.6 36.6 73 -1.8 28.8
10:25 1023 30.21 852 25.16 2.8 37 72 -1.8 28.8
10:30 1023 30.21 852 25.16 2.7 36.9 73 -1.6 29.1
10:35 1023 30.21 852 25.16 2.7 36.8 74 -1.6 29.2
10:40 1023 30.21 852 25.16 2.5 36.5 73 -1.8 28.8
10:45 1023 30.21 852 25.16 2.7 36.9 71 -2 28.4
10:50 1023 30.21 852 25.16 2.9 37.3 71 -1.8 28.8
10:55 1023 30.21 852 25.16 3.1 37.7 71 -1.7 28.9
11:00 1022 30.18 852 25.16 3.3 37.9 70 -1.7 29
11:05 1022 30.18 852 25.16 3.4 38.1 70 -1.6 29.2
11:10 1022 30.18 852 25.16 3.5 38.4 68 -1.8 28.8
11:15 1022 30.18 851 25.13 3.6 38.4 68 -1.8 28.7
11:20 1022 30.18 851 25.13 3.7 38.7 67 -1.9 28.6
11:25 1022 30.18 851 25.13 3.9 39.1 65 -2 28.5
11:30 1022 30.18 851 25.13 4.1 39.4 67 -1.5 29.3
11:35 1022 30.18 851 25.13 4 39.2 67 -1.7 29
11:40 1022 30.18 851 25.13 4.4 39.9 65 -1.6 29.2
11:45 1022 30.18 851 25.13 4.1 39.3 66 -1.8 28.8
11:50 1022 30.18 851 25.13 4.3 39.8 65 -1.7 29
11:55 1022 30.18 851 25.13 4.5 40 64 -1.7 28.9
12:00 1022 30.18 851 25.13 4.6 40.3 64 -1.6 29.1
12:05 1022 30.18 851 25.13 4.5 40.1 64 -1.8 28.8
12:10 1022 30.18 851 25.13 4.7 40.5 63 -1.7 29
12:15 1021 30.15 851 25.13 5.4 41.6 62 -1.4 29.6
12:20 1021 30.15 851 25.13 5.1 41.2 64 -1.2 29.9
12:25 1021 30.15 851 25.13 5.2 41.3 64 -1.1 30
12:30 1021 30.15 850 25.1 5.3 41.5 62 -1.3 29.6
12:35 1021 30.15 850 25.1 5.3 41.6 64 -1 30.3
12:40 1021 30.15 850 25.1 5.2 41.4 63 -1.2 29.8
12:45 1021 30.15 850 25.1 5.2 41.4 63 -1.2 29.9
12:50 1021 30.15 850 25.1 5.1 41.3 64 -1.2 29.9
12:55 1021 30.15 850 25.1 5 41 64 -1.2 29.8
13:00 1021 30.15 850 25.1 5 40.9 65 -1.1 30.1
13:05 1021 30.15 850 25.1 4.7 40.5 66 -1.1 29.9
13:10 1021 30.15 850 25.1 4.9 40.8 63 -1.5 29.2
13:15 1020 30.12 850 25.1 5.3 41.5 63 -1.2 29.9
13:20 1020 30.12 849 25.07 5.5 41.9 63 -1 30.2
13:25 1020 30.12 849 25.07 5.6 42.1 61 -1.2 29.8
13:30 1020 30.12 849 25.07 5.7 42.3 63 -0.8 30.6
13:35 1020 30.12 849 25.07 5.9 42.6 61 -1.1 30
13:40 1020 30.12 849 25.07 6.2 43.1 61 -0.7 30.7
13:45 1020 30.12 849 25.07 5.9 42.5 62 -0.8 30.5
13:50 1020 30.12 849 25.07 5.7 42.2 63 -0.8 30.5
13:55 1020 30.12 849 25.07 5.5 41.9 63 -1 30.2
14:00 1020 30.12 849 25.07 5.7 42.3 62 -0.9 30.3
14:05 1020 30.12 849 25.07 5.8 42.5 62 -0.9 30.3
14:10 1019 30.09 849 25.07 5.9 42.5 63 -0.5 31
14:15 1019 30.09 849 25.07 6.2 43.1 63 -0.4 31.3
14:20 1019 30.09 849 25.07 6.3 43.3 62 -0.4 31.3
14:25 1019 30.09 848 25.04 6.3 43.4 62 -0.4 31.4
14:30 1019 30.09 848 25.04 6 42.9 64 -0.3 31.5
14:35 1019 30.09 848 25.04 5.5 41.8 66 -0.4 31.3
14:40 1019 30.09 848 25.04 5.9 42.6 63 -0.7 30.8
14:45 1019 30.09 848 25.04 6.1 42.9 64 -0.3 31.5
14:50 1019 30.09 848 25.04 6 42.8 63 -0.4 31.2
14:55 1019 30.09 848 25.04 5.9 42.5 64 -0.5 31.1
15:00 1019 30.09 848 25.04 6.1 42.9 63 -0.5 31.1
15:05 1019 30.09 848 25.04 6 42.7 64 -0.3 31.5
15:10 1019 30.09 848 25.04 5.8 42.5 65 -0.2 31.6
15:15 1019 30.09 848 25.04 5.7 42.2 65 -0.3 31.5
15:20 1019 30.09 848 25.04 5.6 42.1 66 -0.3 31.4
15:25 1019 30.09 848 25.04 5.7 42.2 66 -0.3 31.5
15:30 1018 30.06 848 25.04 5.5 41.9 66 -0.3 31.5
15:35 1018 30.06 848 25.04 5.8 42.5 64 -0.4 31.2
15:40 1018 30.06 847 25.01 5.7 42.2 66 -0.2 31.7
15:45 1018 30.06 847 25.01 5.1 41.2 69 -0.2 31.7
15:50 1018 30.06 847 25.01 5 41.1 68 -0.3 31.4
15:55 1018 30.06 847 25.01 5.2 41.3 68 -0.3 31.5
16:00 1018 30.06 847 25.01 5.1 41.2 68 -0.2 31.6
16:05 1018 30.06 847 25.01 4.9 40.8 69 -0.2 31.6
16:10 1018 30.06 847 25.01 4.7 40.4 70 -0.4 31.4
16:15 1018 30.06 847 25.01 4.4 39.9 71 -0.5 31.1
16:20 1018 30.06 847 25.01 4.4 40 70 -0.5 31.2
16:25 1018 30.06 847 25.01 4.7 40.4 69 -0.5 31.1
16:30 1018 30.06 847 25.01 4.8 40.6 69 -0.4 31.3
16:35 1018 30.06 847 25.01 4.9 40.8 68 -0.4 31.2
16:40 1018 30.06 847 25.01 5 41.1 68 -0.3 31.5
16:45 1018 30.06 847 25.01 4.8 40.7 69 -0.3 31.5
16:50 1018 30.06 847 25.01 4.5 40.1 70 -0.4 31.2
16:55 1018 30.06 847 25.01 4.3 39.7 72 -0.3 31.4
17:00 1018 30.06 847 25.01 4.2 39.6 72 -0.4 31.3
17:05 1018 30.06 847 25.01 4.2 39.6 72 -0.5 31.2
17:10 1018 30.06 847 25.01 4.2 39.6 72 -0.4 31.3
17:15 1018 30.06 847 25.01 4.1 39.5 72 -0.5 31.1
17:20 1018 30.06 847 25.01 4.2 39.6 70 -0.7 30.8
17:25 1018 30.06 847 25.01 4.4 39.9 71 -0.3 31.4
17:30 1018 30.06 847 25.01 4.4 39.9 71 -0.4 31.2
17:35 1018 30.06 847 25.01 4.6 40.3 69 -0.5 31.1
17:40 1018 30.06 847 25.01 4.4 39.9 71 -0.4 31.3
17:45 1018 30.06 847 25.01 4.1 39.3 72 -0.5 31.2
17:50 1018 30.06 847 25.01 4 39.1 72 -0.5 31
17:55 1018 30.06 847 25.01 4 39.2 72 -0.5 31
18:00 1018 30.06 847 25.01 4 39.2 72 -0.5 31
18:05 1018 30.06 847 25.01 4.1 39.3 72 -0.6 31
18:10 1018 30.06 847 25.01 4.1 39.3 72 -0.6 31
18:15 1018 30.06 847 25.01 4.1 39.3 73 -0.4 31.3
18:20 1017 30.03 847 25.01 4 39.3 73 -0.4 31.2
18:25 1017 30.03 847 25.01 4 39.2 73 -0.5 31.2
18:30 1017 30.03 847 25.01 3.9 39.1 74 -0.4 31.4
18:35 1017 30.03 847 25.01 3.8 38.9 75 -0.2 31.6
18:40 1017 30.03 847 25.01 3.5 38.4 75 -0.4 31.3
18:45 1017 30.03 847 25.01 3.4 38.1 76 -0.5 31.2
18:50 1017 30.03 847 25.01 3.3 37.9 76 -0.5 31.1
18:55 1017 30.03 847 25.01 3.2 37.8 77 -0.5 31.1
19:00 1017 30.03 847 25.01 3.1 37.6 77 -0.6 31
19:05 1017 30.03 846 24.98 3 37.5 77 -0.6 30.9
19:10 1017 30.03 847 25.01 3 37.4 77 -0.6 30.9
19:15 1017 30.03 847 25.01 2.9 37.3 77 -0.7 30.8
19:20 1017 30.03 847 25.01 2.9 37.2 77 -0.7 30.8
19:25 1017 30.03 846 24.98 2.8 37 78 -0.7 30.8
19:30 1017 30.03 846 24.98 2.7 36.9 78 -0.7 30.8
19:35 1017 30.03 846 24.98 2.7 36.8 79 -0.7 30.8
19:40 1017 30.03 846 24.98 2.6 36.7 79 -0.7 30.7
19:45 1017 30.03 846 24.98 2.6 36.7 79 -0.7 30.7
19:50 1017 30.03 847 25.01 2.6 36.8 79 -0.7 30.7
19:55 1017 30.03 846 24.98 2.6 36.7 79 -0.7 30.7
20:00 1017 30.03 846 24.98 2.6 36.7 79 -0.7 30.7
20:05 1017 30.03 846 24.98 2.6 36.7 79 -0.7 30.8
20:10 1017 30.03 846 24.98 2.6 36.6 79 -0.7 30.8
20:15 1017 30.03 846 24.98 2.5 36.6 79 -0.7 30.8
20:20 1017 30.03 846 24.98 2.5 36.6 79 -0.7 30.7
20:25 1017 30.03 847 25.01 2.5 36.6 79 -0.7 30.7
20:30 1017 30.03 847 25.01 2.6 36.6 79 -0.7 30.7
20:35 1017 30.03 847 25.01 2.6 36.6 79 -0.7 30.7
20:40 1017 30.03 847 25.01 2.6 36.7 79 -0.7 30.8
20:45 1017 30.03 847 25.01 2.6 36.6 79 -0.7 30.8
20:50 1017 30.03 847 25.01 2.5 36.5 79 -0.7 30.8
20:55 1017 30.03 847 25.01 2.5 36.5 80 -0.7 30.7
21:00 1017 30.03 847 25.01 2.4 36.4 80 -0.6 30.9
21:05 1017 30.03 847 25.01 2.4 36.3 81 -0.6 31
21:10 1017 30.03 847 25.01 2.4 36.3 81 -0.6 31
21:15 1018 30.06 847 25.01 2.4 36.3 81 -0.6 30.9
21:20 1017 30.03 847 25.01 2.4 36.3 81 -0.6 30.9
21:25 1017 30.03 847 25.01 2.4 36.3 80 -0.6 30.9
21:30 1017 30.03 847 25.01 2.4 36.3 81 -0.6 31
21:35 1017 30.03 847 25.01 2.4 36.2 80 -0.7 30.8
21:40 1018 30.06 847 25.01 2.4 36.3 80 -0.6 30.8
21:45 1018 30.06 847 25.01 2.4 36.3 81 -0.6 30.9
21:50 1018 30.06 847 25.01 2.4 36.2 81 -0.5 31
21:55 1018 30.06 847 25.01 2.4 36.2 81 -0.5 31
22:00 1017 30.03 847 25.01 2.3 36.2 82 -0.5 31.1
22:05 1017 30.03 846 24.98 2.3 36.1 82 -0.5 31.1
22:10 1017 30.03 846 24.98 2.2 36 82 -0.5 31.1
22:15 1017 30.03 846 24.98 2.2 36 82 -0.5 31
22:20 1017 30.03 846 24.98 2.2 35.9 82 -0.6 30.9
22:25 1017 30.03 846 24.98 2.2 36 82 -0.6 30.9
22:30 1017 30.03 846 24.98 2.2 36 82 -0.6 30.9
22:35 1017 30.03 846 24.98 2.2 35.9 82 -0.6 30.9
22:40 1017 30.03 846 24.98 2.2 36 81 -0.7 30.8
22:45 1017 30.03 846 24.98 2.2 36 81 -0.7 30.8
22:50 1017 30.03 846 24.98 2.3 36.1 81 -0.7 30.7
22:55 1017 30.03 846 24.98 2.3 36.1 80 -0.8 30.6
23:00 1017 30.03 846 24.98 2.2 36 80 -0.9 30.5
23:05 1017 30.03 846 24.98 2.2 36 80 -0.9 30.4
23:10 1017 30.03 846 24.98 2.2 36 80 -0.9 30.4
23:15 1017 30.03 846 24.98 2.2 35.9 80 -0.9 30.4
23:20 1017 30.03 846 24.98 2.1 35.8 81 -0.9 30.5
23:25 1017 30.03 846 24.98 2.1 35.8 81 -0.8 30.6
23:30 1017 30.03 846 24.98 2.1 35.9 82 -0.7 30.8
23:35 1017 30.03 846 24.98 2.1 35.9 81 -0.8 30.6
23:40 1017 30.03 846 24.98 2.1 35.8 82 -0.7 30.7
23:45 1017 30.03 846 24.98 2.1 35.8 81 -0.8 30.6
23:50 1017 30.03 846 24.98 2.1 35.7 82 -0.7 30.7
23:55 1017 30.03 846 24.98 2.1 35.7 82 -0.7 30.7
24:00 1017 30.03 846 24.98 2.1 35.7 82 -0.6 30.9